<?xml version="1.0" encoding="UTF-8" standalone="no" ?>
<gpx xmlns="http://www.topografix.com/GPX/1/1" xmlns:xsi="http://www.w3.org/2001/XMLSchema-instance" xsi:schemaLocation="http://www.topografix.com/GPX/1/1 http://www.topografix.com/GPX/1/1/gpx.xsd" version="1.1" creator="VisuGPX - https://www.visugpx.com">
  <metadata>
    <name>Vendanges-bike 2016</name>
    <desc><![CDATA[Tracé du parcours 26 km de la vendanges-bike à La Motte(83) le dimanche 2 octobre 2016]]></desc>
  </metadata>
  <trk>
    <name><![CDATA[02-OCT-16 12:06:10]]></name>
    <trkseg>
      <trkpt lat="43.49393" lon="6.53592">
        <ele>36.19</ele>
        <time>2016-10-02T06:50:21Z</time>
      </trkpt>
      <trkpt lat="43.49337" lon="6.53618">
        <ele>65.99</ele>
        <time>2016-10-02T07:02:28Z</time>
      </trkpt>
      <trkpt lat="43.49289" lon="6.53521">
        <ele>62.14</ele>
        <time>2016-10-02T07:02:55Z</time>
      </trkpt>
      <trkpt lat="43.49205" lon="6.5355">
        <ele>57.82</ele>
        <time>2016-10-02T07:03:13Z</time>
      </trkpt>
      <trkpt lat="43.49137" lon="6.53605">
        <ele>57.34</ele>
        <time>2016-10-02T07:03:37Z</time>
      </trkpt>
      <trkpt lat="43.49055" lon="6.53631">
        <ele>53.01</ele>
        <time>2016-10-02T07:04:02Z</time>
      </trkpt>
      <trkpt lat="43.49017" lon="6.53739">
        <ele>48.68</ele>
        <time>2016-10-02T07:04:22Z</time>
      </trkpt>
      <trkpt lat="43.49033" lon="6.53859">
        <ele>52.53</ele>
        <time>2016-10-02T07:05:13Z</time>
      </trkpt>
      <trkpt lat="43.48992" lon="6.53975">
        <ele>49.65</ele>
        <time>2016-10-02T07:05:36Z</time>
      </trkpt>
      <trkpt lat="43.48953" lon="6.54044">
        <ele>48.2</ele>
        <time>2016-10-02T07:06:09Z</time>
      </trkpt>
      <trkpt lat="43.48928" lon="6.54076">
        <ele>47.72</ele>
        <time>2016-10-02T07:06:45Z</time>
      </trkpt>
      <trkpt lat="43.48936" lon="6.54177">
        <ele>48.2</ele>
        <time>2016-10-02T07:07:11Z</time>
      </trkpt>
      <trkpt lat="43.49003" lon="6.54206">
        <ele>51.57</ele>
        <time>2016-10-02T07:07:36Z</time>
      </trkpt>
      <trkpt lat="43.49045" lon="6.54305">
        <ele>55.41</ele>
        <time>2016-10-02T07:08:08Z</time>
      </trkpt>
      <trkpt lat="43.48985" lon="6.54386">
        <ele>55.41</ele>
        <time>2016-10-02T07:08:35Z</time>
      </trkpt>
      <trkpt lat="43.48937" lon="6.54512">
        <ele>66.47</ele>
        <time>2016-10-02T07:09:20Z</time>
      </trkpt>
      <trkpt lat="43.48896" lon="6.54635">
        <ele>67.43</ele>
        <time>2016-10-02T07:09:53Z</time>
      </trkpt>
      <trkpt lat="43.48862" lon="6.54753">
        <ele>65.99</ele>
        <time>2016-10-02T07:10:18Z</time>
      </trkpt>
      <trkpt lat="43.48847" lon="6.54876">
        <ele>64.55</ele>
        <time>2016-10-02T07:10:39Z</time>
      </trkpt>
      <trkpt lat="43.48849" lon="6.55003">
        <ele>61.66</ele>
        <time>2016-10-02T07:11:03Z</time>
      </trkpt>
      <trkpt lat="43.48864" lon="6.55125">
        <ele>58.3</ele>
        <time>2016-10-02T07:11:23Z</time>
      </trkpt>
      <trkpt lat="43.48894" lon="6.55247">
        <ele>53.97</ele>
        <time>2016-10-02T07:11:51Z</time>
      </trkpt>
      <trkpt lat="43.48966" lon="6.55296">
        <ele>51.57</ele>
        <time>2016-10-02T07:12:30Z</time>
      </trkpt>
      <trkpt lat="43.48889" lon="6.55274">
        <ele>46.28</ele>
        <time>2016-10-02T07:12:54Z</time>
      </trkpt>
      <trkpt lat="43.48892" lon="6.55392">
        <ele>42.92</ele>
        <time>2016-10-02T07:13:15Z</time>
      </trkpt>
      <trkpt lat="43.48922" lon="6.55514">
        <ele>48.2</ele>
        <time>2016-10-02T07:13:49Z</time>
      </trkpt>
      <trkpt lat="43.48911" lon="6.55645">
        <ele>48.68</ele>
        <time>2016-10-02T07:14:17Z</time>
      </trkpt>
      <trkpt lat="43.48946" lon="6.55704">
        <ele>45.32</ele>
        <time>2016-10-02T07:14:44Z</time>
      </trkpt>
      <trkpt lat="43.49015" lon="6.5571">
        <ele>47.72</ele>
        <time>2016-10-02T07:15:13Z</time>
      </trkpt>
      <trkpt lat="43.48953" lon="6.55801">
        <ele>44.84</ele>
        <time>2016-10-02T07:15:34Z</time>
      </trkpt>
      <trkpt lat="43.48892" lon="6.55897">
        <ele>42.92</ele>
        <time>2016-10-02T07:15:53Z</time>
      </trkpt>
      <trkpt lat="43.48836" lon="6.5599">
        <ele>41.95</ele>
        <time>2016-10-02T07:16:15Z</time>
      </trkpt>
      <trkpt lat="43.48797" lon="6.56094">
        <ele>42.44</ele>
        <time>2016-10-02T07:16:37Z</time>
      </trkpt>
      <trkpt lat="43.48708" lon="6.56111">
        <ele>41.47</ele>
        <time>2016-10-02T07:16:59Z</time>
      </trkpt>
      <trkpt lat="43.48648" lon="6.56221">
        <ele>45.8</ele>
        <time>2016-10-02T07:17:27Z</time>
      </trkpt>
      <trkpt lat="43.48583" lon="6.56321">
        <ele>45.32</ele>
        <time>2016-10-02T07:17:52Z</time>
      </trkpt>
      <trkpt lat="43.48522" lon="6.56415">
        <ele>44.84</ele>
        <time>2016-10-02T07:18:13Z</time>
      </trkpt>
      <trkpt lat="43.4849" lon="6.56532">
        <ele>42.44</ele>
        <time>2016-10-02T07:18:33Z</time>
      </trkpt>
      <trkpt lat="43.48466" lon="6.56658">
        <ele>40.51</ele>
        <time>2016-10-02T07:18:54Z</time>
      </trkpt>
      <trkpt lat="43.48409" lon="6.56751">
        <ele>38.59</ele>
        <time>2016-10-02T07:19:22Z</time>
      </trkpt>
      <trkpt lat="43.48388" lon="6.56861">
        <ele>31.38</ele>
        <time>2016-10-02T07:19:45Z</time>
      </trkpt>
      <trkpt lat="43.48367" lon="6.56984">
        <ele>28.98</ele>
        <time>2016-10-02T07:19:59Z</time>
      </trkpt>
      <trkpt lat="43.48427" lon="6.57074">
        <ele>35.71</ele>
        <time>2016-10-02T07:20:28Z</time>
      </trkpt>
      <trkpt lat="43.48493" lon="6.57123">
        <ele>34.74</ele>
        <time>2016-10-02T07:20:52Z</time>
      </trkpt>
      <trkpt lat="43.48574" lon="6.57177">
        <ele>34.26</ele>
        <time>2016-10-02T07:21:14Z</time>
      </trkpt>
      <trkpt lat="43.48579" lon="6.57297">
        <ele>35.71</ele>
        <time>2016-10-02T07:21:42Z</time>
      </trkpt>
      <trkpt lat="43.48544" lon="6.57417">
        <ele>42.44</ele>
        <time>2016-10-02T07:22:25Z</time>
      </trkpt>
      <trkpt lat="43.48536" lon="6.57541">
        <ele>49.65</ele>
        <time>2016-10-02T07:23:12Z</time>
      </trkpt>
      <trkpt lat="43.48578" lon="6.57618">
        <ele>53.01</ele>
        <time>2016-10-02T07:23:48Z</time>
      </trkpt>
      <trkpt lat="43.48628" lon="6.57716">
        <ele>55.89</ele>
        <time>2016-10-02T07:24:23Z</time>
      </trkpt>
      <trkpt lat="43.48658" lon="6.57838">
        <ele>61.18</ele>
        <time>2016-10-02T07:25:01Z</time>
      </trkpt>
      <trkpt lat="43.48668" lon="6.57962">
        <ele>63.1</ele>
        <time>2016-10-02T07:25:35Z</time>
      </trkpt>
      <trkpt lat="43.48647" lon="6.5808">
        <ele>60.22</ele>
        <time>2016-10-02T07:25:57Z</time>
      </trkpt>
      <trkpt lat="43.48661" lon="6.58205">
        <ele>61.66</ele>
        <time>2016-10-02T07:26:20Z</time>
      </trkpt>
      <trkpt lat="43.48734" lon="6.58249">
        <ele>66.47</ele>
        <time>2016-10-02T07:26:54Z</time>
      </trkpt>
      <trkpt lat="43.48783" lon="6.58334">
        <ele>71.76</ele>
        <time>2016-10-02T07:27:34Z</time>
      </trkpt>
      <trkpt lat="43.48861" lon="6.58373">
        <ele>77.04</ele>
        <time>2016-10-02T07:28:12Z</time>
      </trkpt>
      <trkpt lat="43.48934" lon="6.58448">
        <ele>77.52</ele>
        <time>2016-10-02T07:28:45Z</time>
      </trkpt>
      <trkpt lat="43.49006" lon="6.58519">
        <ele>75.6</ele>
        <time>2016-10-02T07:29:07Z</time>
      </trkpt>
      <trkpt lat="43.49003" lon="6.58639">
        <ele>74.64</ele>
        <time>2016-10-02T07:29:33Z</time>
      </trkpt>
      <trkpt lat="43.48964" lon="6.58753">
        <ele>67.43</ele>
        <time>2016-10-02T07:29:55Z</time>
      </trkpt>
      <trkpt lat="43.48917" lon="6.58856">
        <ele>55.41</ele>
        <time>2016-10-02T07:30:26Z</time>
      </trkpt>
      <trkpt lat="43.4893" lon="6.58903">
        <ele>49.16</ele>
        <time>2016-10-02T07:30:55Z</time>
      </trkpt>
      <trkpt lat="43.48961" lon="6.5879">
        <ele>59.26</ele>
        <time>2016-10-02T07:31:38Z</time>
      </trkpt>
      <trkpt lat="43.49013" lon="6.58675">
        <ele>70.79</ele>
        <time>2016-10-02T07:32:45Z</time>
      </trkpt>
      <trkpt lat="43.49075" lon="6.58585">
        <ele>77.52</ele>
        <time>2016-10-02T07:33:36Z</time>
      </trkpt>
      <trkpt lat="43.49141" lon="6.58518">
        <ele>84.73</ele>
        <time>2016-10-02T07:34:28Z</time>
      </trkpt>
      <trkpt lat="43.4918" lon="6.5842">
        <ele>90.02</ele>
        <time>2016-10-02T07:35:39Z</time>
      </trkpt>
      <trkpt lat="43.49228" lon="6.58367">
        <ele>88.1</ele>
        <time>2016-10-02T07:39:07Z</time>
      </trkpt>
      <trkpt lat="43.49316" lon="6.58363">
        <ele>83.29</ele>
        <time>2016-10-02T07:39:31Z</time>
      </trkpt>
      <trkpt lat="43.49393" lon="6.58395">
        <ele>74.64</ele>
        <time>2016-10-02T07:39:53Z</time>
      </trkpt>
      <trkpt lat="43.49446" lon="6.5839">
        <ele>65.51</ele>
        <time>2016-10-02T07:40:15Z</time>
      </trkpt>
      <trkpt lat="43.49441" lon="6.58266">
        <ele>62.14</ele>
        <time>2016-10-02T07:40:35Z</time>
      </trkpt>
      <trkpt lat="43.49377" lon="6.58196">
        <ele>61.18</ele>
        <time>2016-10-02T07:41:01Z</time>
      </trkpt>
      <trkpt lat="43.49365" lon="6.58084">
        <ele>61.18</ele>
        <time>2016-10-02T07:41:30Z</time>
      </trkpt>
      <trkpt lat="43.49311" lon="6.5807">
        <ele>60.7</ele>
        <time>2016-10-02T07:42:00Z</time>
      </trkpt>
      <trkpt lat="43.49286" lon="6.58094">
        <ele>60.7</ele>
        <time>2016-10-02T07:42:37Z</time>
      </trkpt>
      <trkpt lat="43.49243" lon="6.58157">
        <ele>65.51</ele>
        <time>2016-10-02T07:43:19Z</time>
      </trkpt>
      <trkpt lat="43.49259" lon="6.58049">
        <ele>56.86</ele>
        <time>2016-10-02T07:43:49Z</time>
      </trkpt>
      <trkpt lat="43.49334" lon="6.58003">
        <ele>53.97</ele>
        <time>2016-10-02T07:44:14Z</time>
      </trkpt>
      <trkpt lat="43.4941" lon="6.57939">
        <ele>51.57</ele>
        <time>2016-10-02T07:44:54Z</time>
      </trkpt>
      <trkpt lat="43.49431" lon="6.57825">
        <ele>48.2</ele>
        <time>2016-10-02T07:45:17Z</time>
      </trkpt>
      <trkpt lat="43.49404" lon="6.5777">
        <ele>46.76</ele>
        <time>2016-10-02T07:45:44Z</time>
      </trkpt>
      <trkpt lat="43.49382" lon="6.57882">
        <ele>48.68</ele>
        <time>2016-10-02T07:46:13Z</time>
      </trkpt>
      <trkpt lat="43.49383" lon="6.57767">
        <ele>46.28</ele>
        <time>2016-10-02T07:46:40Z</time>
      </trkpt>
      <trkpt lat="43.49399" lon="6.57642">
        <ele>42.44</ele>
        <time>2016-10-02T07:46:56Z</time>
      </trkpt>
      <trkpt lat="43.49428" lon="6.57519">
        <ele>44.84</ele>
        <time>2016-10-02T07:47:21Z</time>
      </trkpt>
      <trkpt lat="43.49519" lon="6.57491">
        <ele>45.32</ele>
        <time>2016-10-02T07:47:47Z</time>
      </trkpt>
      <trkpt lat="43.49607" lon="6.57569">
        <ele>49.16</ele>
        <time>2016-10-02T07:48:31Z</time>
      </trkpt>
      <trkpt lat="43.49688" lon="6.57638">
        <ele>52.53</ele>
        <time>2016-10-02T07:49:02Z</time>
      </trkpt>
      <trkpt lat="43.49733" lon="6.57774">
        <ele>54.93</ele>
        <time>2016-10-02T07:50:05Z</time>
      </trkpt>
      <trkpt lat="43.4981" lon="6.57857">
        <ele>55.41</ele>
        <time>2016-10-02T07:50:57Z</time>
      </trkpt>
      <trkpt lat="43.49849" lon="6.57916">
        <ele>57.34</ele>
        <time>2016-10-02T07:51:37Z</time>
      </trkpt>
      <trkpt lat="43.49929" lon="6.57985">
        <ele>59.74</ele>
        <time>2016-10-02T07:52:13Z</time>
      </trkpt>
      <trkpt lat="43.50004" lon="6.58076">
        <ele>61.66</ele>
        <time>2016-10-02T07:52:59Z</time>
      </trkpt>
      <trkpt lat="43.50075" lon="6.581">
        <ele>59.26</ele>
        <time>2016-10-02T07:53:34Z</time>
      </trkpt>
      <trkpt lat="43.50127" lon="6.58207">
        <ele>56.37</ele>
        <time>2016-10-02T07:54:00Z</time>
      </trkpt>
      <trkpt lat="43.50184" lon="6.58262">
        <ele>48.2</ele>
        <time>2016-10-02T07:54:42Z</time>
      </trkpt>
      <trkpt lat="43.50257" lon="6.58276">
        <ele>57.34</ele>
        <time>2016-10-02T07:55:23Z</time>
      </trkpt>
      <trkpt lat="43.50334" lon="6.58265">
        <ele>56.37</ele>
        <time>2016-10-02T07:55:51Z</time>
      </trkpt>
      <trkpt lat="43.50431" lon="6.58264">
        <ele>60.7</ele>
        <time>2016-10-02T07:56:23Z</time>
      </trkpt>
      <trkpt lat="43.50509" lon="6.58214">
        <ele>63.58</ele>
        <time>2016-10-02T07:56:57Z</time>
      </trkpt>
      <trkpt lat="43.50525" lon="6.58113">
        <ele>63.58</ele>
        <time>2016-10-02T07:57:42Z</time>
      </trkpt>
      <trkpt lat="43.50508" lon="6.58221">
        <ele>63.1</ele>
        <time>2016-10-02T07:59:35Z</time>
      </trkpt>
      <trkpt lat="43.5043" lon="6.58266">
        <ele>60.22</ele>
        <time>2016-10-02T08:00:49Z</time>
      </trkpt>
      <trkpt lat="43.50446" lon="6.58265">
        <ele>61.18</ele>
        <time>2016-10-02T08:01:42Z</time>
      </trkpt>
      <trkpt lat="43.50512" lon="6.58199">
        <ele>63.58</ele>
        <time>2016-10-02T08:02:19Z</time>
      </trkpt>
      <trkpt lat="43.50514" lon="6.58158">
        <ele>63.1</ele>
        <time>2016-10-02T08:06:57Z</time>
      </trkpt>
      <trkpt lat="43.50525" lon="6.58035">
        <ele>65.03</ele>
        <time>2016-10-02T08:07:26Z</time>
      </trkpt>
      <trkpt lat="43.50505" lon="6.57913">
        <ele>70.31</ele>
        <time>2016-10-02T08:07:51Z</time>
      </trkpt>
      <trkpt lat="43.50491" lon="6.5779">
        <ele>69.35</ele>
        <time>2016-10-02T08:08:19Z</time>
      </trkpt>
      <trkpt lat="43.50492" lon="6.57664">
        <ele>69.35</ele>
        <time>2016-10-02T08:08:43Z</time>
      </trkpt>
      <trkpt lat="43.50535" lon="6.57583">
        <ele>68.87</ele>
        <time>2016-10-02T08:09:08Z</time>
      </trkpt>
      <trkpt lat="43.5061" lon="6.57647">
        <ele>66.47</ele>
        <time>2016-10-02T08:10:02Z</time>
      </trkpt>
      <trkpt lat="43.5068" lon="6.57712">
        <ele>66.47</ele>
        <time>2016-10-02T08:11:15Z</time>
      </trkpt>
      <trkpt lat="43.50722" lon="6.57834">
        <ele>63.1</ele>
        <time>2016-10-02T08:11:39Z</time>
      </trkpt>
      <trkpt lat="43.50768" lon="6.57948">
        <ele>59.26</ele>
        <time>2016-10-02T08:12:00Z</time>
      </trkpt>
      <trkpt lat="43.50821" lon="6.58044">
        <ele>53.97</ele>
        <time>2016-10-02T08:12:20Z</time>
      </trkpt>
      <trkpt lat="43.50889" lon="6.58116">
        <ele>55.89</ele>
        <time>2016-10-02T08:13:07Z</time>
      </trkpt>
      <trkpt lat="43.50914" lon="6.58233">
        <ele>54.45</ele>
        <time>2016-10-02T08:13:27Z</time>
      </trkpt>
      <trkpt lat="43.50968" lon="6.58312">
        <ele>53.97</ele>
        <time>2016-10-02T08:13:51Z</time>
      </trkpt>
      <trkpt lat="43.51048" lon="6.58316">
        <ele>56.37</ele>
        <time>2016-10-02T08:14:24Z</time>
      </trkpt>
      <trkpt lat="43.51128" lon="6.58256">
        <ele>55.41</ele>
        <time>2016-10-02T08:14:46Z</time>
      </trkpt>
      <trkpt lat="43.51215" lon="6.58214">
        <ele>47.72</ele>
        <time>2016-10-02T08:15:12Z</time>
      </trkpt>
      <trkpt lat="43.51281" lon="6.58206">
        <ele>49.65</ele>
        <time>2016-10-02T08:15:43Z</time>
      </trkpt>
      <trkpt lat="43.51371" lon="6.58244">
        <ele>50.61</ele>
        <time>2016-10-02T08:16:11Z</time>
      </trkpt>
      <trkpt lat="43.51461" lon="6.58275">
        <ele>50.61</ele>
        <time>2016-10-02T08:16:34Z</time>
      </trkpt>
      <trkpt lat="43.5149" lon="6.58339">
        <ele>48.2</ele>
        <time>2016-10-02T08:16:57Z</time>
      </trkpt>
      <trkpt lat="43.51535" lon="6.58428">
        <ele>46.76</ele>
        <time>2016-10-02T08:17:17Z</time>
      </trkpt>
      <trkpt lat="43.51624" lon="6.58439">
        <ele>46.28</ele>
        <time>2016-10-02T08:17:37Z</time>
      </trkpt>
      <trkpt lat="43.51704" lon="6.58401">
        <ele>46.28</ele>
        <time>2016-10-02T08:17:57Z</time>
      </trkpt>
      <trkpt lat="43.51779" lon="6.58361">
        <ele>46.76</ele>
        <time>2016-10-02T08:18:18Z</time>
      </trkpt>
      <trkpt lat="43.51817" lon="6.58251">
        <ele>47.72</ele>
        <time>2016-10-02T08:18:39Z</time>
      </trkpt>
      <trkpt lat="43.51856" lon="6.58133">
        <ele>48.68</ele>
        <time>2016-10-02T08:19:03Z</time>
      </trkpt>
      <trkpt lat="43.51896" lon="6.58021">
        <ele>49.65</ele>
        <time>2016-10-02T08:19:26Z</time>
      </trkpt>
      <trkpt lat="43.51898" lon="6.57898">
        <ele>53.97</ele>
        <time>2016-10-02T08:19:55Z</time>
      </trkpt>
      <trkpt lat="43.51862" lon="6.57776">
        <ele>56.86</ele>
        <time>2016-10-02T08:20:25Z</time>
      </trkpt>
      <trkpt lat="43.51823" lon="6.57676">
        <ele>64.55</ele>
        <time>2016-10-02T08:22:28Z</time>
      </trkpt>
      <trkpt lat="43.51812" lon="6.57563">
        <ele>69.83</ele>
        <time>2016-10-02T08:23:12Z</time>
      </trkpt>
      <trkpt lat="43.51815" lon="6.57438">
        <ele>73.2</ele>
        <time>2016-10-02T08:23:52Z</time>
      </trkpt>
      <trkpt lat="43.51817" lon="6.57322">
        <ele>78.48</ele>
        <time>2016-10-02T08:24:27Z</time>
      </trkpt>
      <trkpt lat="43.51785" lon="6.57208">
        <ele>80.41</ele>
        <time>2016-10-02T08:25:00Z</time>
      </trkpt>
      <trkpt lat="43.51727" lon="6.57143">
        <ele>86.66</ele>
        <time>2016-10-02T08:25:38Z</time>
      </trkpt>
      <trkpt lat="43.51739" lon="6.57016">
        <ele>88.58</ele>
        <time>2016-10-02T08:26:25Z</time>
      </trkpt>
      <trkpt lat="43.51755" lon="6.56896">
        <ele>87.62</ele>
        <time>2016-10-02T08:27:01Z</time>
      </trkpt>
      <trkpt lat="43.51744" lon="6.56773">
        <ele>90.98</ele>
        <time>2016-10-02T08:27:30Z</time>
      </trkpt>
      <trkpt lat="43.51717" lon="6.56698">
        <ele>99.15</ele>
        <time>2016-10-02T08:28:09Z</time>
      </trkpt>
      <trkpt lat="43.51646" lon="6.56616">
        <ele>100.6</ele>
        <time>2016-10-02T08:28:43Z</time>
      </trkpt>
      <trkpt lat="43.51563" lon="6.56584">
        <ele>98.67</ele>
        <time>2016-10-02T08:29:13Z</time>
      </trkpt>
      <trkpt lat="43.51472" lon="6.5661">
        <ele>98.19</ele>
        <time>2016-10-02T08:29:45Z</time>
      </trkpt>
      <trkpt lat="43.51384" lon="6.56637">
        <ele>101.08</ele>
        <time>2016-10-02T08:30:15Z</time>
      </trkpt>
      <trkpt lat="43.51349" lon="6.56743">
        <ele>101.08</ele>
        <time>2016-10-02T08:30:44Z</time>
      </trkpt>
      <trkpt lat="43.51325" lon="6.56858">
        <ele>96.75</ele>
        <time>2016-10-02T08:31:09Z</time>
      </trkpt>
      <trkpt lat="43.51319" lon="6.56731">
        <ele>100.11</ele>
        <time>2016-10-02T08:31:42Z</time>
      </trkpt>
      <trkpt lat="43.51312" lon="6.56687">
        <ele>102.04</ele>
        <time>2016-10-02T08:35:44Z</time>
      </trkpt>
      <trkpt lat="43.51354" lon="6.56587">
        <ele>106.84</ele>
        <time>2016-10-02T08:39:33Z</time>
      </trkpt>
      <trkpt lat="43.51406" lon="6.56472">
        <ele>113.09</ele>
        <time>2016-10-02T08:40:17Z</time>
      </trkpt>
      <trkpt lat="43.5146" lon="6.56359">
        <ele>118.86</ele>
        <time>2016-10-02T08:41:00Z</time>
      </trkpt>
      <trkpt lat="43.51524" lon="6.56264">
        <ele>125.59</ele>
        <time>2016-10-02T08:41:41Z</time>
      </trkpt>
      <trkpt lat="43.51596" lon="6.56183">
        <ele>130.88</ele>
        <time>2016-10-02T08:42:21Z</time>
      </trkpt>
      <trkpt lat="43.51665" lon="6.561">
        <ele>139.05</ele>
        <time>2016-10-02T08:43:06Z</time>
      </trkpt>
      <trkpt lat="43.51735" lon="6.56013">
        <ele>148.18</ele>
        <time>2016-10-02T08:43:54Z</time>
      </trkpt>
      <trkpt lat="43.51804" lon="6.55924">
        <ele>159.72</ele>
        <time>2016-10-02T08:44:46Z</time>
      </trkpt>
      <trkpt lat="43.51838" lon="6.55806">
        <ele>167.41</ele>
        <time>2016-10-02T08:45:33Z</time>
      </trkpt>
      <trkpt lat="43.51855" lon="6.55682">
        <ele>178.94</ele>
        <time>2016-10-02T08:46:23Z</time>
      </trkpt>
      <trkpt lat="43.51929" lon="6.5556">
        <ele>196.73</ele>
        <time>2016-10-02T08:47:26Z</time>
      </trkpt>
      <trkpt lat="43.51881" lon="6.55522">
        <ele>212.11</ele>
        <time>2016-10-02T08:48:20Z</time>
      </trkpt>
      <trkpt lat="43.51789" lon="6.55477">
        <ele>229.41</ele>
        <time>2016-10-02T08:49:20Z</time>
      </trkpt>
      <trkpt lat="43.51712" lon="6.55375">
        <ele>243.35</ele>
        <time>2016-10-02T08:50:25Z</time>
      </trkpt>
      <trkpt lat="43.51754" lon="6.55306">
        <ele>252</ele>
        <time>2016-10-02T08:59:45Z</time>
      </trkpt>
      <trkpt lat="43.518" lon="6.55194">
        <ele>254.41</ele>
        <time>2016-10-02T09:00:23Z</time>
      </trkpt>
      <trkpt lat="43.51844" lon="6.55072">
        <ele>256.33</ele>
        <time>2016-10-02T09:00:57Z</time>
      </trkpt>
      <trkpt lat="43.519" lon="6.54955">
        <ele>253.44</ele>
        <time>2016-10-02T09:02:48Z</time>
      </trkpt>
      <trkpt lat="43.51969" lon="6.54866">
        <ele>250.08</ele>
        <time>2016-10-02T09:03:10Z</time>
      </trkpt>
      <trkpt lat="43.5201" lon="6.54749">
        <ele>253.44</ele>
        <time>2016-10-02T09:03:37Z</time>
      </trkpt>
      <trkpt lat="43.52056" lon="6.54623">
        <ele>259.69</ele>
        <time>2016-10-02T09:04:25Z</time>
      </trkpt>
      <trkpt lat="43.52107" lon="6.54505">
        <ele>263.06</ele>
        <time>2016-10-02T09:05:11Z</time>
      </trkpt>
      <trkpt lat="43.5214" lon="6.54371">
        <ele>270.27</ele>
        <time>2016-10-02T09:05:59Z</time>
      </trkpt>
      <trkpt lat="43.52189" lon="6.54349">
        <ele>272.19</ele>
        <time>2016-10-02T09:07:07Z</time>
      </trkpt>
      <trkpt lat="43.52281" lon="6.54361">
        <ele>276.52</ele>
        <time>2016-10-02T09:08:04Z</time>
      </trkpt>
      <trkpt lat="43.52325" lon="6.54235">
        <ele>280.36</ele>
        <time>2016-10-02T09:08:53Z</time>
      </trkpt>
      <trkpt lat="43.52346" lon="6.54113">
        <ele>281.8</ele>
        <time>2016-10-02T09:09:43Z</time>
      </trkpt>
      <trkpt lat="43.52342" lon="6.5398">
        <ele>282.28</ele>
        <time>2016-10-02T09:10:15Z</time>
      </trkpt>
      <trkpt lat="43.52333" lon="6.53844">
        <ele>285.17</ele>
        <time>2016-10-02T09:10:50Z</time>
      </trkpt>
      <trkpt lat="43.52316" lon="6.53711">
        <ele>285.17</ele>
        <time>2016-10-02T09:11:30Z</time>
      </trkpt>
      <trkpt lat="43.52241" lon="6.53686">
        <ele>284.69</ele>
        <time>2016-10-02T09:12:11Z</time>
      </trkpt>
      <trkpt lat="43.52209" lon="6.53654">
        <ele>281.8</ele>
        <time>2016-10-02T09:12:51Z</time>
      </trkpt>
      <trkpt lat="43.52201" lon="6.53499">
        <ele>273.63</ele>
        <time>2016-10-02T09:13:15Z</time>
      </trkpt>
      <trkpt lat="43.52145" lon="6.53459">
        <ele>271.71</ele>
        <time>2016-10-02T09:13:38Z</time>
      </trkpt>
      <trkpt lat="43.52063" lon="6.53465">
        <ele>265.94</ele>
        <time>2016-10-02T09:14:04Z</time>
      </trkpt>
      <trkpt lat="43.51974" lon="6.53408">
        <ele>261.62</ele>
        <time>2016-10-02T09:14:26Z</time>
      </trkpt>
      <trkpt lat="43.51899" lon="6.53336">
        <ele>256.33</ele>
        <time>2016-10-02T09:14:44Z</time>
      </trkpt>
      <trkpt lat="43.51807" lon="6.53374">
        <ele>253.44</ele>
        <time>2016-10-02T09:15:34Z</time>
      </trkpt>
      <trkpt lat="43.51714" lon="6.53358">
        <ele>250.08</ele>
        <time>2016-10-02T09:16:54Z</time>
      </trkpt>
      <trkpt lat="43.51609" lon="6.53324">
        <ele>247.2</ele>
        <time>2016-10-02T09:18:13Z</time>
      </trkpt>
      <trkpt lat="43.51503" lon="6.53279">
        <ele>251.52</ele>
        <time>2016-10-02T09:19:08Z</time>
      </trkpt>
      <trkpt lat="43.51398" lon="6.53273">
        <ele>246.72</ele>
        <time>2016-10-02T09:19:56Z</time>
      </trkpt>
      <trkpt lat="43.51296" lon="6.53289">
        <ele>239.02</ele>
        <time>2016-10-02T09:20:35Z</time>
      </trkpt>
      <trkpt lat="43.51305" lon="6.53181">
        <ele>234.22</ele>
        <time>2016-10-02T09:21:56Z</time>
      </trkpt>
      <trkpt lat="43.51341" lon="6.53067">
        <ele>238.54</ele>
        <time>2016-10-02T09:22:35Z</time>
      </trkpt>
      <trkpt lat="43.51333" lon="6.52928">
        <ele>243.83</ele>
        <time>2016-10-02T09:23:24Z</time>
      </trkpt>
      <trkpt lat="43.51361" lon="6.52805">
        <ele>240.47</ele>
        <time>2016-10-02T09:23:45Z</time>
      </trkpt>
      <trkpt lat="43.51367" lon="6.52672">
        <ele>251.52</ele>
        <time>2016-10-02T09:24:28Z</time>
      </trkpt>
      <trkpt lat="43.51377" lon="6.52524">
        <ele>249.6</ele>
        <time>2016-10-02T09:25:22Z</time>
      </trkpt>
      <trkpt lat="43.5137" lon="6.52391">
        <ele>241.91</ele>
        <time>2016-10-02T09:26:03Z</time>
      </trkpt>
      <trkpt lat="43.51308" lon="6.52303">
        <ele>235.18</ele>
        <time>2016-10-02T09:26:26Z</time>
      </trkpt>
      <trkpt lat="43.51211" lon="6.52271">
        <ele>236.62</ele>
        <time>2016-10-02T09:27:08Z</time>
      </trkpt>
      <trkpt lat="43.51116" lon="6.5229">
        <ele>236.14</ele>
        <time>2016-10-02T09:27:37Z</time>
      </trkpt>
      <trkpt lat="43.51021" lon="6.52313">
        <ele>245.27</ele>
        <time>2016-10-02T09:29:00Z</time>
      </trkpt>
      <trkpt lat="43.50965" lon="6.52263">
        <ele>243.35</ele>
        <time>2016-10-02T09:29:47Z</time>
      </trkpt>
      <trkpt lat="43.50884" lon="6.52303">
        <ele>241.91</ele>
        <time>2016-10-02T09:30:18Z</time>
      </trkpt>
      <trkpt lat="43.50821" lon="6.52397">
        <ele>238.54</ele>
        <time>2016-10-02T09:30:40Z</time>
      </trkpt>
      <trkpt lat="43.50758" lon="6.52486">
        <ele>235.66</ele>
        <time>2016-10-02T09:31:02Z</time>
      </trkpt>
      <trkpt lat="43.50676" lon="6.52544">
        <ele>229.89</ele>
        <time>2016-10-02T09:31:23Z</time>
      </trkpt>
      <trkpt lat="43.50585" lon="6.52597">
        <ele>226.53</ele>
        <time>2016-10-02T09:31:45Z</time>
      </trkpt>
      <trkpt lat="43.50525" lon="6.52701">
        <ele>224.12</ele>
        <time>2016-10-02T09:32:11Z</time>
      </trkpt>
      <trkpt lat="43.50493" lon="6.52824">
        <ele>207.78</ele>
        <time>2016-10-02T09:32:39Z</time>
      </trkpt>
      <trkpt lat="43.50473" lon="6.52913">
        <ele>203.94</ele>
        <time>2016-10-02T09:33:43Z</time>
      </trkpt>
      <trkpt lat="43.50384" lon="6.5289">
        <ele>212.59</ele>
        <time>2016-10-02T09:34:29Z</time>
      </trkpt>
      <trkpt lat="43.50307" lon="6.52921">
        <ele>219.8</ele>
        <time>2016-10-02T09:35:21Z</time>
      </trkpt>
      <trkpt lat="43.50223" lon="6.52865">
        <ele>227.49</ele>
        <time>2016-10-02T09:36:09Z</time>
      </trkpt>
      <trkpt lat="43.50153" lon="6.52786">
        <ele>232.78</ele>
        <time>2016-10-02T09:36:54Z</time>
      </trkpt>
      <trkpt lat="43.50089" lon="6.52703">
        <ele>232.3</ele>
        <time>2016-10-02T09:38:49Z</time>
      </trkpt>
      <trkpt lat="43.50058" lon="6.52587">
        <ele>223.16</ele>
        <time>2016-10-02T09:39:12Z</time>
      </trkpt>
      <trkpt lat="43.49981" lon="6.52586">
        <ele>203.94</ele>
        <time>2016-10-02T09:39:57Z</time>
      </trkpt>
      <trkpt lat="43.49919" lon="6.52522">
        <ele>189.52</ele>
        <time>2016-10-02T09:40:28Z</time>
      </trkpt>
      <trkpt lat="43.49878" lon="6.52415">
        <ele>176.54</ele>
        <time>2016-10-02T09:40:49Z</time>
      </trkpt>
      <trkpt lat="43.49855" lon="6.52536">
        <ele>172.21</ele>
        <time>2016-10-02T09:41:12Z</time>
      </trkpt>
      <trkpt lat="43.49823" lon="6.52645">
        <ele>162.6</ele>
        <time>2016-10-02T09:41:45Z</time>
      </trkpt>
      <trkpt lat="43.49873" lon="6.52753">
        <ele>151.06</ele>
        <time>2016-10-02T09:42:17Z</time>
      </trkpt>
      <trkpt lat="43.49879" lon="6.52874">
        <ele>141.93</ele>
        <time>2016-10-02T09:42:47Z</time>
      </trkpt>
      <trkpt lat="43.49897" lon="6.52993">
        <ele>125.59</ele>
        <time>2016-10-02T09:43:26Z</time>
      </trkpt>
      <trkpt lat="43.49867" lon="6.53119">
        <ele>108.29</ele>
        <time>2016-10-02T09:44:48Z</time>
      </trkpt>
      <trkpt lat="43.49804" lon="6.53194">
        <ele>102.52</ele>
        <time>2016-10-02T09:45:09Z</time>
      </trkpt>
      <trkpt lat="43.49847" lon="6.53238">
        <ele>108.29</ele>
        <time>2016-10-02T09:45:45Z</time>
      </trkpt>
      <trkpt lat="43.49814" lon="6.53303">
        <ele>115.98</ele>
        <time>2016-10-02T09:46:21Z</time>
      </trkpt>
      <trkpt lat="43.49723" lon="6.53312">
        <ele>122.71</ele>
        <time>2016-10-02T09:46:54Z</time>
      </trkpt>
      <trkpt lat="43.49649" lon="6.53382">
        <ele>120.78</ele>
        <time>2016-10-02T09:47:17Z</time>
      </trkpt>
      <trkpt lat="43.49563" lon="6.53428">
        <ele>111.17</ele>
        <time>2016-10-02T09:47:27Z</time>
      </trkpt>
      <trkpt lat="43.49477" lon="6.53479">
        <ele>102.52</ele>
        <time>2016-10-02T09:47:38Z</time>
      </trkpt>
      <trkpt lat="43.49405" lon="6.53512">
        <ele>86.66</ele>
        <time>2016-10-02T09:47:58Z</time>
      </trkpt>
      <trkpt lat="43.49355" lon="6.53586">
        <ele>78</ele>
        <time>2016-10-02T09:48:25Z</time>
      </trkpt>
      <trkpt lat="43.49366" lon="6.536">
        <ele>78</ele>
        <time>2016-10-02T09:54:35Z</time>
      </trkpt>
      <trkpt lat="43.4931" lon="6.53594">
        <ele>73.68</ele>
        <time>2016-10-02T09:59:37Z</time>
      </trkpt>
      <trkpt lat="43.49241" lon="6.53648">
        <ele>74.16</ele>
        <time>2016-10-02T10:00:19Z</time>
      </trkpt>
      <trkpt lat="43.49175" lon="6.53746">
        <ele>72.72</ele>
        <time>2016-10-02T10:01:01Z</time>
      </trkpt>
      <trkpt lat="43.49132" lon="6.53858">
        <ele>69.35</ele>
        <time>2016-10-02T10:01:25Z</time>
      </trkpt>
      <trkpt lat="43.49089" lon="6.53973">
        <ele>68.39</ele>
        <time>2016-10-02T10:01:42Z</time>
      </trkpt>
      <trkpt lat="43.49045" lon="6.54087">
        <ele>66.47</ele>
        <time>2016-10-02T10:02:02Z</time>
      </trkpt>
      <trkpt lat="43.49015" lon="6.54202">
        <ele>64.07</ele>
        <time>2016-10-02T10:02:21Z</time>
      </trkpt>
      <trkpt lat="43.48939" lon="6.54192">
        <ele>57.34</ele>
        <time>2016-10-02T10:02:41Z</time>
      </trkpt>
      <trkpt lat="43.48876" lon="6.54173">
        <ele>54.93</ele>
        <time>2016-10-02T10:03:10Z</time>
      </trkpt>
    </trkseg>
  </trk>
</gpx>